»·PEaware :: N737TY KTOA-KSNA

N737TY :: KTOA-KSNA

FLIGHT INFORMATION

Flight Status: Arrived
Operator: Privately registered:
United States
More flights under this callsign
Pilot: Todd P. (5750)
Aircraft: CESSNA 172 SKYHAWK
(C172)
More flights by this aircraft type
Origin: KTOA Zamperini
United States
Destination: KSNA John Wayne-Orange Co
United States
More flights between these airports :: More routes between these airports
Route: +LIMBO V64 SLI
File this flight plan on PilotEdge
Remarks: TEC route SCTN4
Altitude:
(Current/Filed)
4,000ft
Speed:
(Current/Filed)
100kts
Departed: 31-May-15 07:48 PM
Arrived: 31-May-15 08:18 PM
Distance/Time
Traveled:
25nm/0:30
Distance/Time
To Go:
Arrived

Flight Plot

Page will automatically refresh every two minutes.


Map Options




Map Legend


Flown Route
Filed Route
Departure Airport
Arrival Airport
Navaid (VOR, NDB)
Fix

Horizontal Profiles

Position Reports

Time Latitude Longitude Heading Altitude Ground
Speed
31-May-15 19:21 33.804697 -118.346229 33 94ft 0kts
31-May-15 19:22 33.804697 -118.346229 33 94ft 0kts
31-May-15 19:23 33.804697 -118.346229 33 94ft 0kts
31-May-15 19:24 33.804697 -118.346229 33 94ft 0kts
31-May-15 19:25 33.804697 -118.346229 33 94ft 0kts
31-May-15 19:26 33.804697 -118.346229 33 94ft 0kts
31-May-15 19:27 33.804697 -118.346229 33 94ft 0kts
31-May-15 19:28 33.804697 -118.346229 33 94ft 0kts
31-May-15 19:29 33.804697 -118.346229 33 94ft 0kts
31-May-15 19:30 33.804697 -118.346229 33 94ft 0kts
31-May-15 19:31 33.804697 -118.346229 33 94ft 0kts
31-May-15 19:32 33.804697 -118.346229 33 94ft 0kts
31-May-15 19:33 33.804697 -118.346229 33 94ft 0kts
31-May-15 19:34 33.804697 -118.346229 33 94ft 0kts
31-May-15 19:35 33.804697 -118.346229 33 94ft 0kts
31-May-15 19:36 33.804697 -118.346229 33 94ft 0kts
31-May-15 19:37 33.804697 -118.346229 33 94ft 0kts
31-May-15 19:38 33.804842 -118.345844 149 95ft 8kts
31-May-15 19:39 33.802925 -118.341932 130 100ft 21kts
31-May-15 19:40 33.798572 -118.335357 128 105ft 23kts
31-May-15 19:41 33.799054 -118.333312 44 101ft 0kts
31-May-15 19:42 33.799054 -118.333312 44 101ft 0kts
31-May-15 19:43 33.799054 -118.333312 44 101ft 0kts
31-May-15 19:44 33.801389 -118.335514 306 160ft 62kts
31-May-15 19:45 33.812014 -118.352642 301 1460ft 68kts
31-May-15 19:46 33.822429 -118.369916 282 2673ft 72kts
31-May-15 19:47 33.801441 -118.364821 123 3070ft 117kts
31-May-15 19:48 33.783134 -118.329734 133 3009ft 125kts
31-May-15 19:49 33.766635 -118.293471 100 3107ft 114kts
31-May-15 19:50 33.765811 -118.250611 99 2878ft 94kts
31-May-15 19:51 33.769786 -118.217019 73 2978ft 110kts
31-May-15 19:52 33.775871 -118.179543 86 2967ft 121kts
31-May-15 19:53 33.778790 -118.140603 92 3009ft 115kts
31-May-15 19:54 33.778594 -118.101842 93 2787ft 134kts
31-May-15 19:55 33.782892 -118.062631 71 2867ft 119kts
31-May-15 19:56 33.800489 -118.029187 49 2869ft 119kts
31-May-15 19:57 33.823762 -118.001469 60 2866ft 118kts
31-May-15 19:58 33.841904 -117.969503 57 2959ft 113kts
31-May-15 19:59 33.856505 -117.935922 79 2966ft 115kts
31-May-15 20:00 33.863950 -117.898971 79 2966ft 115kts
31-May-15 20:01 33.869924 -117.869362 79 2967ft 115kts
31-May-15 20:02 33.877479 -117.831939 79 2966ft 115kts
31-May-15 20:03 33.884837 -117.794571 79 2963ft 116kts
31-May-15 20:04 33.868079 -117.768749 180 2959ft 103kts
31-May-15 20:05 33.844052 -117.767356 180 2961ft 104kts
31-May-15 20:06 33.824934 -117.783573 253 2973ft 89kts
31-May-15 20:07 33.804142 -117.795474 181 2893ft 84kts
31-May-15 20:08 33.779715 -117.799935 205 2644ft 100kts
31-May-15 20:09 33.755981 -117.816859 215 1781ft 107kts
31-May-15 20:10 33.735608 -117.830739 208 1335ft 77kts
31-May-15 20:11 33.717612 -117.842010 210 1152ft 98kts
31-May-15 20:12 33.695102 -117.856736 207 728ft 52kts
31-May-15 20:13 33.682245 -117.864665 210 77ft 45kts
31-May-15 20:14 33.677929 -117.868979 212 47ft 9kts

Navigation Log

Ident Type
Flight plan parsing failed, navigation log unavailable